sensor_id;sensor_type;location;lat;lon;timestamp;P1;durP1;ratioP1;P2;durP2;ratioP2
7377;SDS011;3730;50.856;12.776;2023-06-22T00:01:27;9.13;;;8.37;;
7377;SDS011;3730;50.856;12.776;2023-06-22T03:18:29;10.07;;;9.17;;
7377;SDS011;3730;50.856;12.776;2023-06-22T03:20:55;10.33;;;9.40;;
7377;SDS011;3730;50.856;12.776;2023-06-22T03:23:21;9.93;;;9.13;;
7377;SDS011;3730;50.856;12.776;2023-06-22T03:25:47;10.60;;;9.60;;
7377;SDS011;3730;50.856;12.776;2023-06-22T03:28:13;10.40;;;9.40;;
7377;SDS011;3730;50.856;12.776;2023-06-22T03:30:39;10.40;;;9.40;;
7377;SDS011;3730;50.856;12.776;2023-06-22T03:33:05;10.17;;;9.23;;
7377;SDS011;3730;50.856;12.776;2023-06-22T03:35:31;10.07;;;9.07;;
7377;SDS011;3730;50.856;12.776;2023-06-22T03:37:57;10.30;;;9.30;;
7377;SDS011;3730;50.856;12.776;2023-06-22T03:40:23;9.67;;;8.67;;
7377;SDS011;3730;50.856;12.776;2023-06-22T03:42:49;10.03;;;8.73;;
7377;SDS011;3730;50.856;12.776;2023-06-22T03:45:15;10.07;;;9.07;;
7377;SDS011;3730;50.856;12.776;2023-06-22T03:47:41;9.90;;;8.80;;
7377;SDS011;3730;50.856;12.776;2023-06-22T03:50:07;10.73;;;9.80;;
7377;SDS011;3730;50.856;12.776;2023-06-22T03:52:33;10.43;;;9.43;;
7377;SDS011;3730;50.856;12.776;2023-06-22T03:54:59;12.87;;;11.57;;
7377;SDS011;3730;50.856;12.776;2023-06-22T03:57:25;11.10;;;10.03;;
7377;SDS011;3730;50.856;12.776;2023-06-22T03:59:51;10.70;;;9.70;;
7377;SDS011;3730;50.856;12.776;2023-06-22T04:02:17;10.67;;;9.57;;
7377;SDS011;3730;50.856;12.776;2023-06-22T04:04:43;9.67;;;8.73;;
7377;SDS011;3730;50.856;12.776;2023-06-22T04:07:09;9.60;;;8.67;;
7377;SDS011;3730;50.856;12.776;2023-06-22T04:09:35;9.27;;;8.37;;
7377;SDS011;3730;50.856;12.776;2023-06-22T04:12:01;9.13;;;8.30;;
7377;SDS011;3730;50.856;12.776;2023-06-22T04:14:27;9.63;;;8.63;;
7377;SDS011;3730;50.856;12.776;2023-06-22T04:16:53;9.67;;;8.33;;
7377;SDS011;3730;50.856;12.776;2023-06-22T04:19:19;9.10;;;8.20;;
7377;SDS011;3730;50.856;12.776;2023-06-22T04:21:45;9.87;;;8.90;;
7377;SDS011;3730;50.856;12.776;2023-06-22T04:24:13;9.90;;;9.00;;
7377;SDS011;3730;50.856;12.776;2023-06-22T04:26:39;10.23;;;9.10;;
7377;SDS011;3730;50.856;12.776;2023-06-22T04:29:07;9.83;;;8.93;;
7377;SDS011;3730;50.856;12.776;2023-06-22T04:31:36;9.53;;;8.37;;
7377;SDS011;3730;50.856;12.776;2023-06-22T04:34:06;9.23;;;8.13;;
7377;SDS011;3730;50.856;12.776;2023-06-22T04:36:36;8.53;;;7.67;;
7377;SDS011;3730;50.856;12.776;2023-06-22T04:39:04;8.83;;;8.03;;
7377;SDS011;3730;50.856;12.776;2023-06-22T04:41:30;9.30;;;8.27;;
7377;SDS011;3730;50.856;12.776;2023-06-22T04:44:10;20.50;;;17.33;;
7377;SDS011;3730;50.856;12.776;2023-06-22T04:46:36;9.20;;;8.30;;
7377;SDS011;3730;50.856;12.776;2023-06-22T04:49:08;8.30;;;7.60;;
7377;SDS011;3730;50.856;12.776;2023-06-22T04:51:39;7.80;;;7.00;;
7377;SDS011;3730;50.856;12.776;2023-06-22T04:54:05;7.90;;;7.17;;
7377;SDS011;3730;50.856;12.776;2023-06-22T04:56:32;7.97;;;6.87;;
7377;SDS011;3730;50.856;12.776;2023-06-22T04:58:58;7.23;;;6.53;;
7377;SDS011;3730;50.856;12.776;2023-06-22T05:01:24;8.23;;;7.27;;
7377;SDS011;3730;50.856;12.776;2023-06-22T05:03:50;8.40;;;7.60;;
7377;SDS011;3730;50.856;12.776;2023-06-22T05:06:23;10.13;;;7.80;;
7377;SDS011;3730;50.856;12.776;2023-06-22T05:08:53;10.23;;;7.97;;
7377;SDS011;3730;50.856;12.776;2023-06-22T05:11:23;11.40;;;7.13;;
7377;SDS011;3730;50.856;12.776;2023-06-22T05:13:52;8.00;;;7.33;;
7377;SDS011;3730;50.856;12.776;2023-06-22T05:16:18;7.93;;;7.23;;
7377;SDS011;3730;50.856;12.776;2023-06-22T05:18:51;8.00;;;7.30;;
7377;SDS011;3730;50.856;12.776;2023-06-22T05:21:21;8.37;;;7.63;;
7377;SDS011;3730;50.856;12.776;2023-06-22T05:23:48;9.00;;;8.20;;
7377;SDS011;3730;50.856;12.776;2023-06-22T05:26:14;8.57;;;7.00;;
7377;SDS011;3730;50.856;12.776;2023-06-22T05:32:01;8.07;;;7.13;;
7377;SDS011;3730;50.856;12.776;2023-06-22T05:34:27;18.07;;;8.27;;
7377;SDS011;3730;50.856;12.776;2023-06-22T05:36:53;11.40;;;7.33;;
7377;SDS011;3730;50.856;12.776;2023-06-22T05:39:18;9.27;;;7.43;;
7377;SDS011;3730;50.856;12.776;2023-06-22T05:41:44;9.47;;;8.00;;
7377;SDS011;3730;50.856;12.776;2023-06-22T05:44:10;9.33;;;8.37;;
7377;SDS011;3730;50.856;12.776;2023-06-22T05:46:36;11.83;;;8.77;;
7377;SDS011;3730;50.856;12.776;2023-06-22T05:49:02;11.20;;;9.33;;
7377;SDS011;3730;50.856;12.776;2023-06-22T05:51:28;9.70;;;8.80;;
7377;SDS011;3730;50.856;12.776;2023-06-22T05:53:53;11.50;;;9.53;;
7377;SDS011;3730;50.856;12.776;2023-06-22T05:56:19;13.00;;;11.33;;
7377;SDS011;3730;50.856;12.776;2023-06-22T05:58:45;11.57;;;10.03;;
7377;SDS011;3730;50.856;12.776;2023-06-22T06:01:11;10.50;;;9.43;;
7377;SDS011;3730;50.856;12.776;2023-06-22T06:03:37;10.10;;;9.10;;
7377;SDS011;3730;50.856;12.776;2023-06-22T06:06:06;12.57;;;9.40;;
7377;SDS011;3730;50.856;12.776;2023-06-22T06:08:31;11.40;;;8.93;;
7377;SDS011;3730;50.856;12.776;2023-06-22T06:10:57;9.43;;;8.53;;
7377;SDS011;3730;50.856;12.776;2023-06-22T06:13:23;9.90;;;9.00;;
7377;SDS011;3730;50.856;12.776;2023-06-22T06:15:48;9.70;;;8.80;;
7377;SDS011;3730;50.856;12.776;2023-06-22T06:18:16;9.80;;;8.80;;
7377;SDS011;3730;50.856;12.776;2023-06-22T06:20:42;9.87;;;8.63;;
7377;SDS011;3730;50.856;12.776;2023-06-22T06:23:08;10.53;;;8.00;;
7377;SDS011;3730;50.856;12.776;2023-06-22T06:25:34;10.13;;;8.90;;
7377;SDS011;3730;50.856;12.776;2023-06-22T06:28:03;8.30;;;7.50;;
7377;SDS011;3730;50.856;12.776;2023-06-22T06:30:29;5.27;;;4.87;;
7377;SDS011;3730;50.856;12.776;2023-06-22T06:32:55;6.13;;;5.10;;
7377;SDS011;3730;50.856;12.776;2023-06-22T06:35:21;8.17;;;7.37;;
7377;SDS011;3730;50.856;12.776;2023-06-22T06:37:48;9.10;;;8.20;;
7377;SDS011;3730;50.856;12.776;2023-06-22T06:40:15;7.17;;;6.23;;
7377;SDS011;3730;50.856;12.776;2023-06-22T06:42:41;9.03;;;8.13;;
7377;SDS011;3730;50.856;12.776;2023-06-22T06:45:09;11.80;;;9.33;;
7377;SDS011;3730;50.856;12.776;2023-06-22T06:47:35;9.10;;;7.90;;
7377;SDS011;3730;50.856;12.776;2023-06-22T06:50:02;9.37;;;8.47;;
7377;SDS011;3730;50.856;12.776;2023-06-22T06:52:28;8.30;;;7.60;;
7377;SDS011;3730;50.856;12.776;2023-06-22T06:54:54;8.33;;;7.63;;
7377;SDS011;3730;50.856;12.776;2023-06-22T06:57:20;8.20;;;7.40;;
7377;SDS011;3730;50.856;12.776;2023-06-22T06:59:47;9.13;;;8.27;;
7377;SDS011;3730;50.856;12.776;2023-06-22T07:02:14;7.33;;;6.73;;
7377;SDS011;3730;50.856;12.776;2023-06-22T07:04:40;8.47;;;7.20;;
7377;SDS011;3730;50.856;12.776;2023-06-22T07:07:06;11.97;;;8.43;;
7377;SDS011;3730;50.856;12.776;2023-06-22T07:09:32;10.23;;;7.80;;
7377;SDS011;3730;50.856;12.776;2023-06-22T07:11:58;8.80;;;7.50;;
7377;SDS011;3730;50.856;12.776;2023-06-22T07:14:24;8.53;;;7.73;;
7377;SDS011;3730;50.856;12.776;2023-06-22T07:16:50;8.00;;;7.33;;
7377;SDS011;3730;50.856;12.776;2023-06-22T07:19:16;7.90;;;6.50;;
7377;SDS011;3730;50.856;12.776;2023-06-22T07:21:42;10.43;;;8.10;;
7377;SDS011;3730;50.856;12.776;2023-06-22T07:24:08;9.90;;;8.20;;
7377;SDS011;3730;50.856;12.776;2023-06-22T07:26:34;8.13;;;7.30;;
7377;SDS011;3730;50.856;12.776;2023-06-22T07:29:00;8.23;;;7.53;;
7377;SDS011;3730;50.856;12.776;2023-06-22T07:31:26;8.67;;;7.70;;
7377;SDS011;3730;50.856;12.776;2023-06-22T07:33:52;9.23;;;7.67;;
7377;SDS011;3730;50.856;12.776;2023-06-22T07:36:18;8.10;;;7.40;;
7377;SDS011;3730;50.856;12.776;2023-06-22T07:38:44;14.27;;;8.00;;
7377;SDS011;3730;50.856;12.776;2023-06-22T07:41:10;8.80;;;7.60;;
7377;SDS011;3730;50.856;12.776;2023-06-22T07:43:36;8.07;;;7.27;;
7377;SDS011;3730;50.856;12.776;2023-06-22T07:46:05;14.63;;;9.20;;
7377;SDS011;3730;50.856;12.776;2023-06-22T07:48:31;10.10;;;7.43;;
7377;SDS011;3730;50.856;12.776;2023-06-22T07:50:57;7.80;;;7.20;;
7377;SDS011;3730;50.856;12.776;2023-06-22T07:53:23;8.27;;;7.00;;
7377;SDS011;3730;50.856;12.776;2023-06-22T07:55:49;8.27;;;7.47;;
7377;SDS011;3730;50.856;12.776;2023-06-22T07:58:15;8.17;;;7.37;;
7377;SDS011;3730;50.856;12.776;2023-06-22T08:00:43;8.27;;;7.53;;
7377;SDS011;3730;50.856;12.776;2023-06-22T08:03:09;8.80;;;7.73;;
7377;SDS011;3730;50.856;12.776;2023-06-22T08:05:35;8.63;;;7.53;;
7377;SDS011;3730;50.856;12.776;2023-06-22T08:08:01;8.47;;;7.10;;
7377;SDS011;3730;50.856;12.776;2023-06-22T08:10:27;8.93;;;7.30;;
7377;SDS011;3730;50.856;12.776;2023-06-22T08:12:53;11.40;;;7.77;;
7377;SDS011;3730;50.856;12.776;2023-06-22T08:15:19;10.37;;;7.50;;
7377;SDS011;3730;50.856;12.776;2023-06-22T08:17:46;8.77;;;7.57;;
7377;SDS011;3730;50.856;12.776;2023-06-22T08:20:13;8.60;;;7.70;;
7377;SDS011;3730;50.856;12.776;2023-06-22T08:22:39;8.03;;;7.23;;
7377;SDS011;3730;50.856;12.776;2023-06-22T08:25:05;7.73;;;7.10;;
7377;SDS011;3730;50.856;12.776;2023-06-22T08:27:31;7.87;;;7.10;;
7377;SDS011;3730;50.856;12.776;2023-06-22T08:29:57;8.13;;;7.30;;
7377;SDS011;3730;50.856;12.776;2023-06-22T08:32:27;8.13;;;7.37;;
7377;SDS011;3730;50.856;12.776;2023-06-22T08:34:56;7.97;;;7.28;;
7377;SDS011;3730;50.856;12.776;2023-06-22T08:37:22;8.10;;;7.30;;
7377;SDS011;3730;50.856;12.776;2023-06-22T08:39:55;8.32;;;7.60;;
7377;SDS011;3730;50.856;12.776;2023-06-22T08:42:24;8.65;;;7.88;;
7377;SDS011;3730;50.856;12.776;2023-06-22T08:44:50;8.38;;;7.47;;
7377;SDS011;3730;50.856;12.776;2023-06-22T08:47:16;8.73;;;7.82;;
7377;SDS011;3730;50.856;12.776;2023-06-22T08:49:42;8.75;;;7.55;;
7377;SDS011;3730;50.856;12.776;2023-06-22T08:52:08;7.88;;;7.20;;
7377;SDS011;3730;50.856;12.776;2023-06-22T08:54:34;7.40;;;6.80;;
7377;SDS011;3730;50.856;12.776;2023-06-22T08:57:02;8.40;;;7.00;;
7377;SDS011;3730;50.856;12.776;2023-06-22T08:59:28;8.95;;;8.05;;
7377;SDS011;3730;50.856;12.776;2023-06-22T09:01:54;7.32;;;6.63;;
7377;SDS011;3730;50.856;12.776;2023-06-22T09:04:21;7.68;;;6.72;;
7377;SDS011;3730;50.856;12.776;2023-06-22T09:06:50;9.13;;;6.50;;
7377;SDS011;3730;50.856;12.776;2023-06-22T09:09:17;7.13;;;6.53;;
7377;SDS011;3730;50.856;12.776;2023-06-22T09:11:43;7.45;;;6.82;;
7377;SDS011;3730;50.856;12.776;2023-06-22T09:14:10;7.25;;;6.65;;
7377;SDS011;3730;50.856;12.776;2023-06-22T09:16:36;7.70;;;6.95;;
7377;SDS011;3730;50.856;12.776;2023-06-22T09:19:02;9.65;;;7.05;;
7377;SDS011;3730;50.856;12.776;2023-06-22T09:21:28;8.48;;;7.63;;
7377;SDS011;3730;50.856;12.776;2023-06-22T09:23:54;7.78;;;7.07;;
7377;SDS011;3730;50.856;12.776;2023-06-22T09:26:20;7.70;;;7.10;;
7377;SDS011;3730;50.856;12.776;2023-06-22T09:28:48;7.53;;;6.82;;
7377;SDS011;3730;50.856;12.776;2023-06-22T09:31:14;8.55;;;6.53;;
7377;SDS011;3730;50.856;12.776;2023-06-22T09:33:41;7.65;;;6.88;;
7377;SDS011;3730;50.856;12.776;2023-06-22T09:36:08;6.90;;;6.40;;
7377;SDS011;3730;50.856;12.776;2023-06-22T09:38:34;8.25;;;6.82;;
7377;SDS011;3730;50.856;12.776;2023-06-22T09:41:00;7.28;;;6.68;;
7377;SDS011;3730;50.856;12.776;2023-06-22T09:43:27;8.98;;;6.88;;
7377;SDS011;3730;50.856;12.776;2023-06-22T09:45:53;8.57;;;7.45;;
7377;SDS011;3730;50.856;12.776;2023-06-22T09:48:19;8.18;;;7.38;;
7377;SDS011;3730;50.856;12.776;2023-06-22T09:50:45;8.00;;;7.28;;
7377;SDS011;3730;50.856;12.776;2023-06-22T09:53:11;8.27;;;6.85;;
7377;SDS011;3730;50.856;12.776;2023-06-22T09:55:36;8.20;;;7.40;;
7377;SDS011;3730;50.856;12.776;2023-06-22T09:58:02;9.23;;;7.75;;
7377;SDS011;3730;50.856;12.776;2023-06-22T10:00:28;8.18;;;7.53;;
7377;SDS011;3730;50.856;12.776;2023-06-22T10:02:54;7.13;;;6.53;;
7377;SDS011;3730;50.856;12.776;2023-06-22T10:05:23;8.18;;;7.22;;
7377;SDS011;3730;50.856;12.776;2023-06-22T10:07:50;8.10;;;7.30;;
7377;SDS011;3730;50.856;12.776;2023-06-22T10:10:16;7.85;;;6.90;;
7377;SDS011;3730;50.856;12.776;2023-06-22T10:12:44;7.70;;;7.00;;
7377;SDS011;3730;50.856;12.776;2023-06-22T10:15:14;8.32;;;6.97;;
7377;SDS011;3730;50.856;12.776;2023-06-22T10:17:40;8.55;;;7.25;;
7377;SDS011;3730;50.856;12.776;2023-06-22T10:20:06;8.40;;;7.40;;
7377;SDS011;3730;50.856;12.776;2023-06-22T10:22:40;8.43;;;7.72;;
7377;SDS011;3730;50.856;12.776;2023-06-22T10:25:06;7.93;;;7.22;;
7377;SDS011;3730;50.856;12.776;2023-06-22T10:27:33;9.45;;;7.57;;
7377;SDS011;3730;50.856;12.776;2023-06-22T10:29:59;9.43;;;8.10;;
7377;SDS011;3730;50.856;12.776;2023-06-22T10:32:25;8.52;;;7.82;;
7377;SDS011;3730;50.856;12.776;2023-06-22T10:34:52;8.60;;;7.90;;
7377;SDS011;3730;50.856;12.776;2023-06-22T10:37:19;8.10;;;7.30;;
7377;SDS011;3730;50.856;12.776;2023-06-22T10:39:45;8.40;;;7.55;;
7377;SDS011;3730;50.856;12.776;2023-06-22T10:42:12;7.20;;;6.57;;
7377;SDS011;3730;50.856;12.776;2023-06-22T10:44:38;9.80;;;7.72;;
7377;SDS011;3730;50.856;12.776;2023-06-22T10:47:06;8.68;;;7.80;;
7377;SDS011;3730;50.856;12.776;2023-06-22T10:49:31;9.88;;;7.53;;
7377;SDS011;3730;50.856;12.776;2023-06-22T10:51:57;10.32;;;8.10;;
7377;SDS011;3730;50.856;12.776;2023-06-22T10:54:22;12.68;;;8.25;;
7377;SDS011;3730;50.856;12.776;2023-06-22T10:56:48;8.68;;;7.80;;
7377;SDS011;3730;50.856;12.776;2023-06-22T10:59:14;11.35;;;7.57;;
7377;SDS011;3730;50.856;12.776;2023-06-22T11:01:40;8.52;;;7.63;;
7377;SDS011;3730;50.856;12.776;2023-06-22T11:04:05;11.20;;;8.32;;
7377;SDS011;3730;50.856;12.776;2023-06-22T11:06:31;13.40;;;8.45;;
7377;SDS011;3730;50.856;12.776;2023-06-22T11:08:56;11.38;;;8.00;;
7377;SDS011;3730;50.856;12.776;2023-06-22T11:11:23;8.27;;;7.55;;
7377;SDS011;3730;50.856;12.776;2023-06-22T11:13:48;13.93;;;8.20;;
7377;SDS011;3730;50.856;12.776;2023-06-22T11:16:14;8.32;;;7.63;;
7377;SDS011;3730;50.856;12.776;2023-06-22T11:18:39;8.02;;;7.22;;
7377;SDS011;3730;50.856;12.776;2023-06-22T11:21:05;8.82;;;7.07;;
7377;SDS011;3730;50.856;12.776;2023-06-22T11:23:30;8.60;;;7.50;;
7377;SDS011;3730;50.856;12.776;2023-06-22T11:25:56;7.40;;;6.80;;
7377;SDS011;3730;50.856;12.776;2023-06-22T11:28:21;8.70;;;7.70;;
7377;SDS011;3730;50.856;12.776;2023-06-22T11:30:47;8.85;;;7.95;;
7377;SDS011;3730;50.856;12.776;2023-06-22T11:33:12;8.13;;;7.43;;
7377;SDS011;3730;50.856;12.776;2023-06-22T11:35:38;8.05;;;6.85;;
7377;SDS011;3730;50.856;12.776;2023-06-22T11:38:03;8.35;;;7.40;;
7377;SDS011;3730;50.856;12.776;2023-06-22T11:40:30;7.93;;;6.80;;
7377;SDS011;3730;50.856;12.776;2023-06-22T11:42:55;9.35;;;7.43;;
7377;SDS011;3730;50.856;12.776;2023-06-22T11:45:21;13.45;;;8.27;;
7377;SDS011;3730;50.856;12.776;2023-06-22T11:47:47;7.90;;;7.20;;
7377;SDS011;3730;50.856;12.776;2023-06-22T11:50:12;7.88;;;6.68;;
7377;SDS011;3730;50.856;12.776;2023-06-22T11:52:38;7.55;;;6.85;;
7377;SDS011;3730;50.856;12.776;2023-06-22T11:55:04;7.35;;;6.63;;
7377;SDS011;3730;50.856;12.776;2023-06-22T11:57:35;6.57;;;6.07;;
7377;SDS011;3730;50.856;12.776;2023-06-22T12:00:02;8.77;;;7.05;;
7377;SDS011;3730;50.856;12.776;2023-06-22T12:02:40;7.38;;;6.78;;
7377;SDS011;3730;50.856;12.776;2023-06-22T12:05:06;7.03;;;6.43;;
7377;SDS011;3730;50.856;12.776;2023-06-22T12:07:33;7.65;;;6.93;;
7377;SDS011;3730;50.856;12.776;2023-06-22T12:09:59;8.23;;;6.85;;
7377;SDS011;3730;50.856;12.776;2023-06-22T12:12:25;9.23;;;7.47;;
7377;SDS011;3730;50.856;12.776;2023-06-22T12:14:51;9.40;;;7.28;;
7377;SDS011;3730;50.856;12.776;2023-06-22T12:17:16;8.48;;;6.60;;
7377;SDS011;3730;50.856;12.776;2023-06-22T12:19:42;9.30;;;6.57;;
7377;SDS011;3730;50.856;12.776;2023-06-22T12:22:08;7.85;;;7.05;;
7377;SDS011;3730;50.856;12.776;2023-06-22T12:24:33;7.82;;;6.75;;
7377;SDS011;3730;50.856;12.776;2023-06-22T12:26:59;6.50;;;6.00;;
7377;SDS011;3730;50.856;12.776;2023-06-22T12:29:27;6.90;;;6.22;;
7377;SDS011;3730;50.856;12.776;2023-06-22T12:31:53;10.35;;;7.00;;
7377;SDS011;3730;50.856;12.776;2023-06-22T12:34:19;10.10;;;6.63;;
7377;SDS011;3730;50.856;12.776;2023-06-22T12:36:45;7.20;;;6.50;;
7377;SDS011;3730;50.856;12.776;2023-06-22T12:39:13;6.65;;;6.05;;
7377;SDS011;3730;50.856;12.776;2023-06-22T12:41:39;7.95;;;6.57;;
7377;SDS011;3730;50.856;12.776;2023-06-22T12:44:05;8.07;;;6.47;;
7377;SDS011;3730;50.856;12.776;2023-06-22T12:46:31;8.98;;;6.15;;
7377;SDS011;3730;50.856;12.776;2023-06-22T12:49:02;7.63;;;6.47;;
7377;SDS011;3730;50.856;12.776;2023-06-22T12:51:29;8.63;;;6.20;;
7377;SDS011;3730;50.856;12.776;2023-06-22T12:53:55;6.05;;;5.55;;
7377;SDS011;3730;50.856;12.776;2023-06-22T12:56:21;8.25;;;6.57;;
7377;SDS011;3730;50.856;12.776;2023-06-22T12:58:47;7.38;;;6.70;;
7377;SDS011;3730;50.856;12.776;2023-06-22T13:01:13;8.30;;;6.30;;
7377;SDS011;3730;50.856;12.776;2023-06-22T13:03:39;7.03;;;6.43;;
7377;SDS011;3730;50.856;12.776;2023-06-22T13:06:05;7.45;;;6.80;;
7377;SDS011;3730;50.856;12.776;2023-06-22T13:08:31;9.45;;;6.53;;
7377;SDS011;3730;50.856;12.776;2023-06-22T13:10:57;7.32;;;6.63;;
7377;SDS011;3730;50.856;12.776;2023-06-22T13:13:23;7.18;;;6.57;;
7377;SDS011;3730;50.856;12.776;2023-06-22T13:15:50;8.32;;;7.20;;
7377;SDS011;3730;50.856;12.776;2023-06-22T13:18:17;8.70;;;6.93;;
7377;SDS011;3730;50.856;12.776;2023-06-22T13:20:43;8.25;;;6.85;;
7377;SDS011;3730;50.856;12.776;2023-06-22T13:23:10;7.90;;;7.20;;
7377;SDS011;3730;50.856;12.776;2023-06-22T13:25:36;8.18;;;7.32;;
7377;SDS011;3730;50.856;12.776;2023-06-22T13:28:02;8.45;;;7.20;;
7377;SDS011;3730;50.856;12.776;2023-06-22T13:30:28;8.40;;;7.60;;
7377;SDS011;3730;50.856;12.776;2023-06-22T13:32:56;8.38;;;7.47;;
7377;SDS011;3730;50.856;12.776;2023-06-22T13:35:22;10.32;;;7.07;;
7377;SDS011;3730;50.856;12.776;2023-06-22T13:37:48;8.55;;;7.18;;
7377;SDS011;3730;50.856;12.776;2023-06-22T13:49:37;7.75;;;7.15;;
7377;SDS011;3730;50.856;12.776;2023-06-22T13:52:03;9.15;;;8.25;;
7377;SDS011;3730;50.856;12.776;2023-06-22T13:54:31;10.35;;;7.93;;
7377;SDS011;3730;50.856;12.776;2023-06-22T13:56:57;10.68;;;8.27;;
7377;SDS011;3730;50.856;12.776;2023-06-22T13:59:23;9.38;;;7.32;;
7377;SDS011;3730;50.856;12.776;2023-06-22T14:01:51;8.52;;;7.72;;
7377;SDS011;3730;50.856;12.776;2023-06-22T14:04:17;9.73;;;7.25;;
7377;SDS011;3730;50.856;12.776;2023-06-22T14:06:43;9.60;;;7.63;;
7377;SDS011;3730;50.856;12.776;2023-06-22T14:09:09;10.27;;;8.10;;
7377;SDS011;3730;50.856;12.776;2023-06-22T14:11:35;14.40;;;8.02;;
7377;SDS011;3730;50.856;12.776;2023-06-22T14:14:02;13.32;;;8.50;;
7377;SDS011;3730;50.856;12.776;2023-06-22T14:16:28;12.32;;;7.93;;
7377;SDS011;3730;50.856;12.776;2023-06-22T14:18:54;11.85;;;8.00;;
7377;SDS011;3730;50.856;12.776;2023-06-22T14:21:20;8.70;;;7.88;;
7377;SDS011;3730;50.856;12.776;2023-06-22T14:23:46;9.07;;;7.38;;
7377;SDS011;3730;50.856;12.776;2023-06-22T14:26:14;10.68;;;7.90;;
7377;SDS011;3730;50.856;12.776;2023-06-22T14:28:45;8.63;;;7.32;;
7377;SDS011;3730;50.856;12.776;2023-06-22T14:31:18;14.50;;;7.50;;
7377;SDS011;3730;50.856;12.776;2023-06-22T14:33:47;8.02;;;6.55;;
7377;SDS011;3730;50.856;12.776;2023-06-22T14:36:14;8.20;;;7.35;;
7377;SDS011;3730;50.856;12.776;2023-06-22T14:38:40;9.35;;;6.70;;
7377;SDS011;3730;50.856;12.776;2023-06-22T14:41:06;7.30;;;6.68;;
7377;SDS011;3730;50.856;12.776;2023-06-22T14:43:32;9.98;;;7.15;;
7377;SDS011;3730;50.856;12.776;2023-06-22T14:45:58;8.20;;;7.40;;
7377;SDS011;3730;50.856;12.776;2023-06-22T14:48:24;8.07;;;7.15;;
7377;SDS011;3730;50.856;12.776;2023-06-22T14:50:50;8.23;;;7.03;;
7377;SDS011;3730;50.856;12.776;2023-06-22T14:53:16;7.68;;;6.82;;
7377;SDS011;3730;50.856;12.776;2023-06-22T14:55:45;8.18;;;7.38;;
7377;SDS011;3730;50.856;12.776;2023-06-22T14:58:11;9.73;;;7.18;;
7377;SDS011;3730;50.856;12.776;2023-06-22T15:00:37;7.95;;;7.15;;
7377;SDS011;3730;50.856;12.776;2023-06-22T15:03:04;13.70;;;7.70;;
7377;SDS011;3730;50.856;12.776;2023-06-22T15:05:31;10.30;;;7.40;;
7377;SDS011;3730;50.856;12.776;2023-06-22T15:07:57;7.60;;;7.00;;
7377;SDS011;3730;50.856;12.776;2023-06-22T15:10:24;12.68;;;7.80;;
7377;SDS011;3730;50.856;12.776;2023-06-22T15:12:50;9.82;;;7.35;;
7377;SDS011;3730;50.856;12.776;2023-06-22T15:15:16;9.77;;;7.10;;
7377;SDS011;3730;50.856;12.776;2023-06-22T15:17:42;7.72;;;7.03;;
7377;SDS011;3730;50.856;12.776;2023-06-22T15:20:08;14.32;;;6.97;;
7377;SDS011;3730;50.856;12.776;2023-06-22T15:22:34;8.40;;;6.68;;
7377;SDS011;3730;50.856;12.776;2023-06-22T15:25:00;7.88;;;7.07;;
7377;SDS011;3730;50.856;12.776;2023-06-22T15:27:28;7.78;;;7.00;;
7377;SDS011;3730;50.856;12.776;2023-06-22T15:29:54;8.73;;;6.68;;
7377;SDS011;3730;50.856;12.776;2023-06-22T15:32:20;10.48;;;6.47;;
7377;SDS011;3730;50.856;12.776;2023-06-22T15:34:49;9.18;;;7.20;;
7377;SDS011;3730;50.856;12.776;2023-06-22T15:37:16;8.20;;;6.95;;
7377;SDS011;3730;50.856;12.776;2023-06-22T15:39:42;8.05;;;7.25;;
7377;SDS011;3730;50.856;12.776;2023-06-22T15:42:08;8.77;;;7.03;;
7377;SDS011;3730;50.856;12.776;2023-06-22T15:44:34;8.25;;;6.82;;
7377;SDS011;3730;50.856;12.776;2023-06-22T15:47:00;7.88;;;6.72;;
7377;SDS011;3730;50.856;12.776;2023-06-22T15:49:26;8.13;;;7.00;;
7377;SDS011;3730;50.856;12.776;2023-06-22T15:51:52;10.48;;;6.47;;
7377;SDS011;3730;50.856;12.776;2023-06-22T15:54:18;8.50;;;7.25;;
7377;SDS011;3730;50.856;12.776;2023-06-22T15:56:44;9.18;;;7.70;;
7377;SDS011;3730;50.856;12.776;2023-06-22T15:59:10;7.93;;;7.15;;
7377;SDS011;3730;50.856;12.776;2023-06-22T16:01:36;9.18;;;7.60;;
7377;SDS011;3730;50.856;12.776;2023-06-22T16:04:02;8.95;;;7.05;;
7377;SDS011;3730;50.856;12.776;2023-06-22T16:06:29;8.15;;;7.30;;
7377;SDS011;3730;50.856;12.776;2023-06-22T16:08:55;7.65;;;6.82;;
7377;SDS011;3730;50.856;12.776;2023-06-22T16:11:21;7.00;;;6.40;;
7377;SDS011;3730;50.856;12.776;2023-06-22T16:13:47;7.47;;;6.78;;
7377;SDS011;3730;50.856;12.776;2023-06-22T16:16:13;8.10;;;7.45;;
7377;SDS011;3730;50.856;12.776;2023-06-22T16:18:41;8.80;;;6.95;;
7377;SDS011;3730;50.856;12.776;2023-06-22T16:21:07;8.48;;;7.60;;
7377;SDS011;3730;50.856;12.776;2023-06-22T16:23:33;8.18;;;6.82;;
7377;SDS011;3730;50.856;12.776;2023-06-22T16:25:59;10.80;;;7.03;;
7377;SDS011;3730;50.856;12.776;2023-06-22T16:28:25;11.60;;;7.32;;
7377;SDS011;3730;50.856;12.776;2023-06-22T16:30:52;7.75;;;7.03;;
7377;SDS011;3730;50.856;12.776;2023-06-22T16:33:18;7.88;;;7.07;;
7377;SDS011;3730;50.856;12.776;2023-06-22T16:35:44;8.07;;;7.38;;
7377;SDS011;3730;50.856;12.776;2023-06-22T16:38:10;8.40;;;7.53;;
7377;SDS011;3730;50.856;12.776;2023-06-22T16:40:36;7.90;;;7.10;;
7377;SDS011;3730;50.856;12.776;2023-06-22T16:43:02;7.53;;;6.82;;
7377;SDS011;3730;50.856;12.776;2023-06-22T16:45:28;9.07;;;7.05;;
7377;SDS011;3730;50.856;12.776;2023-06-22T16:47:53;8.02;;;6.70;;
7377;SDS011;3730;50.856;12.776;2023-06-22T16:50:19;8.85;;;6.30;;
7377;SDS011;3730;50.856;12.776;2023-06-22T16:52:45;7.40;;;6.80;;
7377;SDS011;3730;50.856;12.776;2023-06-22T16:55:11;7.95;;;7.15;;
7377;SDS011;3730;50.856;12.776;2023-06-22T16:57:38;8.95;;;7.03;;
7377;SDS011;3730;50.856;12.776;2023-06-22T17:00:05;9.25;;;7.22;;
7377;SDS011;3730;50.856;12.776;2023-06-22T17:02:34;8.20;;;7.07;;
7377;SDS011;3730;50.856;12.776;2023-06-22T17:05:08;8.48;;;7.75;;
7377;SDS011;3730;50.856;12.776;2023-06-22T17:07:34;8.07;;;7.30;;
7377;SDS011;3730;50.856;12.776;2023-06-22T17:10:02;9.20;;;7.03;;
7377;SDS011;3730;50.856;12.776;2023-06-22T17:12:30;7.30;;;6.70;;
7377;SDS011;3730;50.856;12.776;2023-06-22T17:14:56;7.60;;;6.80;;
7377;SDS011;3730;50.856;12.776;2023-06-22T17:17:23;9.93;;;6.95;;
7377;SDS011;3730;50.856;12.776;2023-06-22T17:19:51;15.30;;;8.23;;
7377;SDS011;3730;50.856;12.776;2023-06-22T17:22:17;8.20;;;7.38;;
7377;SDS011;3730;50.856;12.776;2023-06-22T17:24:43;9.20;;;6.90;;
7377;SDS011;3730;50.856;12.776;2023-06-22T17:27:09;7.93;;;7.22;;
7377;SDS011;3730;50.856;12.776;2023-06-22T17:29:35;11.18;;;7.40;;
7377;SDS011;3730;50.856;12.776;2023-06-22T17:32:02;7.60;;;6.90;;
7377;SDS011;3730;50.856;12.776;2023-06-22T17:34:28;8.38;;;7.53;;
7377;SDS011;3730;50.856;12.776;2023-06-22T17:36:55;9.35;;;7.32;;
7377;SDS011;3730;50.856;12.776;2023-06-22T17:39:22;8.45;;;7.72;;
7377;SDS011;3730;50.856;12.776;2023-06-22T17:41:49;15.43;;;7.10;;
7377;SDS011;3730;50.856;12.776;2023-06-22T17:44:19;8.02;;;7.38;;
7377;SDS011;3730;50.856;12.776;2023-06-22T17:46:45;7.90;;;7.20;;
7377;SDS011;3730;50.856;12.776;2023-06-22T17:49:11;14.65;;;7.72;;
7377;SDS011;3730;50.856;12.776;2023-06-22T17:51:42;11.82;;;7.32;;
7377;SDS011;3730;50.856;12.776;2023-06-22T17:54:09;9.27;;;7.10;;
7377;SDS011;3730;50.856;12.776;2023-06-22T17:56:35;9.45;;;7.63;;
7377;SDS011;3730;50.856;12.776;2023-06-22T17:59:00;10.88;;;7.70;;
7377;SDS011;3730;50.856;12.776;2023-06-22T18:01:45;11.05;;;7.47;;
7377;SDS011;3730;50.856;12.776;2023-06-22T18:04:16;8.25;;;7.45;;
7377;SDS011;3730;50.856;12.776;2023-06-22T18:06:46;9.40;;;7.40;;
7377;SDS011;3730;50.856;12.776;2023-06-22T18:09:14;8.73;;;7.45;;
7377;SDS011;3730;50.856;12.776;2023-06-22T18:11:49;9.60;;;7.75;;
7377;SDS011;3730;50.856;12.776;2023-06-22T18:14:18;8.15;;;7.45;;
7377;SDS011;3730;50.856;12.776;2023-06-22T18:16:45;9.32;;;7.40;;
7377;SDS011;3730;50.856;12.776;2023-06-22T18:19:17;10.73;;;7.85;;
7377;SDS011;3730;50.856;12.776;2023-06-22T18:21:46;8.95;;;7.80;;